Time;durP1;ratioP1;P1;durP2;ratioP2;P2;SDS_P1;SDS_P2;PMS_P1;PMS_P2;Temp;Humidity;BMP_temperature;BMP_pressure;BME280_temperature;BME280_humidity;BME280_pressure;Samples;Min_cycle;Max_cycle;Signal;HPM_P1;HPM_P2
2023/01/09 00:00:24;;;;;;;50.17;25.85;;;;;;;;;;5053097;28;20039;-65
2023/01/09 00:02:50;;;;;;;47.88;24.08;;;;;;;;;;5035124;28;20063;-64
2023/01/09 00:05:16;;;;;;;49.63;26.52;;;;;;;;;;5052585;28;20441;-64
2023/01/09 00:07:42;;;;;;;49.88;24.60;;;;;;;;;;5052628;28;20128;-64
2023/01/09 00:10:08;;;;;;;50.22;25.33;;;;;;;;;;5052640;28;20064;-64
2023/01/09 00:12:34;;;;;;;48.05;24.17;;;;;;;;;;5051247;28;20139;-64
2023/01/09 00:15:00;;;;;;;42.88;24.70;;;;;;;;;;5052686;28;20039;-64
2023/01/09 00:17:26;;;;;;;43.58;24.02;;;;;;;;;;5052800;28;20029;-65
2023/01/09 00:19:52;;;;;;;41.80;24.35;;;;;;;;;;5052748;28;20446;-65
2023/01/09 00:22:18;;;;;;;44.38;26.35;;;;;;;;;;5056145;28;20396;-64
2023/01/09 00:24:44;;;;;;;40.72;23.63;;;;;;;;;;5056276;28;20041;-64
2023/01/09 00:27:09;;;;;;;38.10;22.73;;;;;;;;;;5056092;28;20055;-64
2023/01/09 00:29:35;;;;;;;40.38;23.52;;;;;;;;;;5038759;28;20033;-64
2023/01/09 00:32:00;;;;;;;38.05;21.98;;;;;;;;;;5056439;28;20495;-64
2023/01/09 01:03:49;;;;;;;41.05;23.75;;;;;;;;;;5055229;28;20500;-66
2023/01/09 01:08:59;;;;;;;34.35;20.48;;;;;;;;;;5055641;28;20033;-66
2023/01/09 01:11:24;;;;;;;45.03;26.10;;;;;;;;;;5055760;28;20045;-66
2023/01/09 01:13:50;;;;;;;49.30;27.92;;;;;;;;;;5055561;28;20037;-66
2023/01/09 01:16:17;;;;;;;27.25;17.70;;;;;;;;;;5055364;28;20088;-66
2023/01/09 01:18:42;;;;;;;26.98;17.15;;;;;;;;;;5054311;28;20040;-66
2023/01/09 01:21:10;;;;;;;46.55;30.63;;;;;;;;;;5054323;28;20029;-66
2023/01/09 01:23:36;;;;;;;32.53;19.55;;;;;;;;;;5055344;28;20467;-66
2023/01/09 01:26:08;;;;;;;41.30;23.02;;;;;;;;;;5054904;28;20033;-66
2023/01/09 01:28:34;;;;;;;34.08;20.73;;;;;;;;;;5055379;28;20045;-65
2023/01/09 01:30:59;;;;;;;27.13;17.38;;;;;;;;;;5055392;28;20036;-64
2023/01/09 01:33:25;;;;;;;27.88;18.15;;;;;;;;;;5054419;28;20401;-64
2023/01/09 01:35:58;;;;;;;40.78;20.15;;;;;;;;;;5054928;28;20029;-63
2023/01/09 01:38:23;;;;;;;32.50;18.08;;;;;;;;;;5055036;28;20385;-64
2023/01/09 01:40:52;;;;;;;31.38;18.98;;;;;;;;;;5037088;28;20036;-64
2023/01/09 01:43:20;;;;;;;38.63;22.40;;;;;;;;;;5055034;28;20029;-64
2023/01/09 01:45:46;;;;;;;38.00;21.63;;;;;;;;;;5055157;28;20051;-64
2023/01/09 01:48:14;;;;;;;49.15;26.05;;;;;;;;;;5053615;28;20155;-65
2023/01/09 01:50:43;;;;;;;34.03;20.13;;;;;;;;;;5054887;28;20032;-65
2023/01/09 01:53:13;;;;;;;33.33;20.80;;;;;;;;;;5054763;28;20441;-65
2023/01/09 01:55:40;;;;;;;37.35;23.52;;;;;;;;;;5054770;28;20064;-65
2023/01/09 01:58:07;;;;;;;36.30;22.23;;;;;;;;;;5054622;28;20021;-65
2023/01/09 02:00:35;;;;;;;35.10;22.33;;;;;;;;;;5054691;28;20396;-65
2023/01/09 02:03:01;;;;;;;40.67;24.42;;;;;;;;;;5054425;28;20142;-66
2023/01/09 02:05:27;;;;;;;42.75;24.35;;;;;;;;;;5054541;28;20041;-66
2023/01/09 02:07:53;;;;;;;40.40;23.00;;;;;;;;;;5053316;28;20176;-66
2023/01/09 02:10:22;;;;;;;35.97;22.33;;;;;;;;;;5054428;28;20068;-66
2023/01/09 02:12:48;;;;;;;25.60;16.92;;;;;;;;;;5054844;28;20110;-66
2023/01/09 02:15:16;;;;;;;21.42;14.57;;;;;;;;;;5054558;28;20052;-66
2023/01/09 02:18:06;;;;;;;26.55;17.63;;;;;;;;;;5053196;28;20452;-65
2023/01/09 02:20:35;;;;;;;24.90;16.75;;;;;;;;;;5043960;28;20380;-66
2023/01/09 02:23:02;;;;;;;20.23;14.18;;;;;;;;;;5036204;28;20033;-66
2023/01/09 02:25:41;;;;;;;25.40;15.95;;;;;;;;;;5052924;28;20449;-65
2023/01/09 02:28:06;;;;;;;26.42;16.02;;;;;;;;;;5053992;28;20045;-65
2023/01/09 02:30:32;;;;;;;23.33;15.27;;;;;;;;;;5054149;28;20112;-65
2023/01/09 02:33:19;;;;;;;22.75;15.20;;;;;;;;;;5054156;28;20049;-65
2023/01/09 02:39:31;;;;;;;25.63;15.40;;;;;;;;;;5053191;28;20455;-65
2023/01/09 02:42:01;;;;;;;28.55;16.70;;;;;;;;;;5053624;28;20060;-65
2023/01/09 02:44:28;;;;;;;25.02;14.52;;;;;;;;;;5035800;28;20507;-66
2023/01/09 02:47:04;;;;;;;25.33;15.63;;;;;;;;;;5052049;28;20504;-66
2023/01/09 02:57:16;;;;;;;24.13;15.77;;;;;;;;;;5052834;28;20091;-73
2023/01/09 03:00:22;;;;;;;26.40;16.63;;;;;;;;;;5053326;28;20056;-73
2023/01/09 03:02:51;;;;;;;21.75;14.70;;;;;;;;;;5053304;28;20385;-66
2023/01/09 03:05:32;;;;;;;23.08;15.18;;;;;;;;;;5053664;28;20444;-66
2023/01/09 03:08:03;;;;;;;24.80;15.85;;;;;;;;;;5053517;28;20059;-66
2023/01/09 03:10:54;;;;;;;25.52;17.05;;;;;;;;;;5053414;28;20036;-65
2023/01/09 03:13:25;;;;;;;31.67;18.67;;;;;;;;;;5051659;28;20033;-65
2023/01/09 03:15:52;;;;;;;31.77;18.02;;;;;;;;;;5035423;28;20049;-65
2023/01/09 03:18:23;;;;;;;29.95;18.17;;;;;;;;;;5053266;28;20033;-66
2023/01/09 03:20:48;;;;;;;;;;;;;;;;;;5053975;28;20111;-66
2023/01/09 03:23:14;;;;;;;22.88;14.77;;;;;;;;;;5053349;28;20331;-66
2023/01/09 03:25:39;;;;;;;22.95;15.63;;;;;;;;;;5053098;28;20096;-66
2023/01/09 03:28:11;;;;;;;22.13;15.32;;;;;;;;;;5053692;28;20060;-66
2023/01/09 03:30:36;;;;;;;25.90;17.17;;;;;;;;;;5053430;28;20037;-65
2023/01/09 03:33:04;;;;;;;23.73;16.35;;;;;;;;;;5053326;28;20520;-65
2023/01/09 03:35:30;;;;;;;27.00;18.42;;;;;;;;;;5053277;28;20041;-66
2023/01/09 03:37:57;;;;;;;26.85;17.33;;;;;;;;;;5053573;28;20090;-66
2023/01/09 03:40:24;;;;;;;30.23;19.83;;;;;;;;;;5035318;28;20029;-66
2023/01/09 03:42:50;;;;;;;25.67;17.95;;;;;;;;;;5053307;28;20028;-65
2023/01/09 03:45:15;;;;;;;29.63;19.25;;;;;;;;;;5053077;28;20069;-65
2023/01/09 03:47:41;;;;;;;26.73;18.98;;;;;;;;;;5053050;28;20048;-65
2023/01/09 03:50:10;;;;;;;26.50;17.45;;;;;;;;;;5053129;28;20036;-65
2023/01/09 03:52:35;;;;;;;26.85;17.50;;;;;;;;;;5051906;28;20029;-65
2023/01/09 03:55:01;;;;;;;27.83;18.00;;;;;;;;;;5053217;28;20091;-65
2023/01/09 03:57:26;;;;;;;28.58;18.38;;;;;;;;;;5056519;28;20045;-65
2023/01/09 03:59:51;;;;;;;27.70;17.83;;;;;;;;;;5056827;28;20032;-64
2023/01/09 04:02:21;;;;;;;23.20;15.73;;;;;;;;;;5056656;28;20044;-65
2023/01/09 04:04:51;;;;;;;24.00;16.15;;;;;;;;;;5055796;28;20045;-65
2023/01/09 04:07:19;;;;;;;25.45;16.33;;;;;;;;;;5055160;28;20206;-64
2023/01/09 04:09:44;;;;;;;24.80;16.60;;;;;;;;;;5056768;28;20032;-65
2023/01/09 04:12:13;;;;;;;23.27;15.52;;;;;;;;;;5056675;28;20408;-64
2023/01/09 04:14:41;;;;;;;28.00;17.90;;;;;;;;;;5056598;28;20025;-64
2023/01/09 04:17:12;;;;;;;27.30;17.38;;;;;;;;;;5056416;28;20037;-64
2023/01/09 04:19:42;;;;;;;26.10;17.88;;;;;;;;;;5038707;28;20048;-64
2023/01/09 04:22:12;;;;;;;24.67;16.45;;;;;;;;;;5055034;28;20124;-65
2023/01/09 04:24:43;;;;;;;26.30;17.05;;;;;;;;;;5055179;28;20044;-65
2023/01/09 04:27:11;;;;;;;26.40;16.80;;;;;;;;;;5054990;28;20029;-65
2023/01/09 04:29:40;;;;;;;22.65;15.82;;;;;;;;;;5056257;28;20029;-65
2023/01/09 04:32:06;;;;;;;24.98;17.15;;;;;;;;;;5056225;28;20041;-64
2023/01/09 04:34:31;;;;;;;25.45;16.65;;;;;;;;;;5056052;28;20423;-65
2023/01/09 04:36:58;;;;;;;22.67;15.48;;;;;;;;;;5054668;28;20405;-65
2023/01/09 04:39:25;;;;;;;22.33;15.50;;;;;;;;;;5056104;28;20512;-65
2023/01/09 04:41:51;;;;;;;23.58;15.30;;;;;;;;;;5056063;28;20029;-64
2023/01/09 04:45:09;;;;;;;;;;;;;;;;;;;;;
2023/01/09 04:48:05;;;;;;;24.42;15.90;;;;;;;;;;5055508;28;20051;-73
2023/01/09 04:51:03;;;;;;;24.08;15.70;;;;;;;;;;5055016;28;20037;-73
2023/01/09 04:53:37;;;;;;;25.10;16.40;;;;;;;;;;5055945;28;20098;-64
2023/01/09 04:56:03;;;;;;;23.83;15.73;;;;;;;;;;5055685;28;20044;-65
2023/01/09 04:58:59;;;;;;;21.42;15.48;;;;;;;;;;5055814;28;20116;-65
2023/01/09 05:05:27;;;;;;;21.90;15.50;;;;;;;;;;5055531;28;20139;-64
2023/01/09 05:07:57;;;;;;;21.70;14.88;;;;;;;;;;5054401;28;20444;-64
2023/01/09 05:10:28;;;;;;;21.88;16.10;;;;;;;;;;5037371;28;20060;-64
2023/01/09 05:12:56;;;;;;;20.30;14.90;;;;;;;;;;5056059;28;20434;-72
2023/01/09 05:15:22;;;;;;;23.70;16.27;;;;;;;;;;5055284;28;20124;-72
2023/01/09 05:17:48;;;;;;;23.73;15.50;;;;;;;;;;5055831;28;20123;-72
2023/01/09 05:20:18;;;;;;;23.77;16.95;;;;;;;;;;5055472;28;20076;-72
2023/01/09 05:30:20;;;;;;;20.85;14.43;;;;;;;;;;5082994;22;20177;-65
2023/01/09 05:32:51;;;;;;;20.30;14.73;;;;;;;;;;5075165;28;20489;-65
2023/01/09 05:35:16;;;;;;;20.10;14.30;;;;;;;;;;5075584;28;20105;-65
2023/01/09 05:37:42;;;;;;;22.73;15.65;;;;;;;;;;5075308;28;20024;-64
2023/01/09 05:40:08;;;;;;;22.02;15.45;;;;;;;;;;5074941;28;20040;-65
2023/01/09 05:42:33;;;;;;;21.38;14.52;;;;;;;;;;5075157;28;20098;-65
2023/01/09 05:44:58;;;;;;;17.15;13.18;;;;;;;;;;5057389;28;20105;-65
2023/01/09 05:47:24;;;;;;;19.33;14.00;;;;;;;;;;5074886;28;20045;-64
2023/01/09 05:49:49;;;;;;;25.55;17.05;;;;;;;;;;5075103;28;20032;-64
2023/01/09 05:52:14;;;;;;;21.25;16.13;;;;;;;;;;5074719;28;20028;-64
2023/01/09 05:54:40;;;;;;;20.23;15.38;;;;;;;;;;5057091;28;20111;-64
2023/01/09 05:57:05;;;;;;;21.15;14.27;;;;;;;;;;5075198;28;20021;-64
2023/01/09 05:59:35;;;;;;;16.80;12.80;;;;;;;;;;5073962;28;20392;-65
2023/01/09 06:02:04;;;;;;;20.52;14.02;;;;;;;;;;5073864;28;20064;-65
2023/01/09 06:04:38;;;;;;;19.73;14.00;;;;;;;;;;5073458;28;20090;-65
2023/01/09 06:07:11;;;;;;;19.50;13.73;;;;;;;;;;5055396;28;20127;-64
2023/01/09 06:09:41;;;;;;;17.73;12.48;;;;;;;;;;5056175;28;20111;-65
2023/01/09 06:12:10;;;;;;;20.67;13.35;;;;;;;;;;5074083;28;20047;-65
2023/01/09 06:14:38;;;;;;;18.23;13.73;;;;;;;;;;5073826;28;20044;-65
2023/01/09 06:17:08;;;;;;;16.65;13.02;;;;;;;;;;5056180;28;20049;-65
2023/01/09 06:19:39;;;;;;;19.15;13.65;;;;;;;;;;5038701;28;20484;-65
2023/01/09 06:22:07;;;;;;;18.98;13.00;;;;;;;;;;5073471;28;20037;-64
2023/01/09 06:24:37;;;;;;;19.83;13.10;;;;;;;;;;5056083;28;20044;-66
2023/01/09 06:27:07;;;;;;;24.58;15.32;;;;;;;;;;5073801;28;20044;-65
2023/01/09 06:29:33;;;;;;;69.60;30.13;;;;;;;;;;5073320;28;20067;-65
2023/01/09 06:31:58;;;;;;;317.23;126.50;;;;;;;;;;5055924;28;20064;-66
2023/01/09 06:34:35;;;;;;;139.63;75.15;;;;;;;;;;5055904;28;20029;-65
2023/01/09 06:37:01;;;;;;;26.50;20.63;;;;;;;;;;5074151;28;20082;-65
2023/01/09 06:39:27;;;;;;;25.50;19.02;;;;;;;;;;5056250;28;20040;-66
2023/01/09 06:41:56;;;;;;;20.75;17.40;;;;;;;;;;5073070;28;20093;-65
2023/01/09 06:44:22;;;;;;;22.77;15.15;;;;;;;;;;5055835;28;20020;-65
2023/01/09 06:46:47;;;;;;;22.20;16.50;;;;;;;;;;5055796;28;20045;-65
2023/01/09 06:49:22;;;;;;;24.33;16.45;;;;;;;;;;5073222;28;20119;-65
2023/01/09 06:51:51;;;;;;;25.88;17.80;;;;;;;;;;5072657;28;20040;-66
2023/01/09 06:54:23;;;;;;;31.80;26.50;;;;;;;;;;5072602;28;20174;-65
2023/01/09 06:56:49;;;;;;;23.60;18.77;;;;;;;;;;5072622;28;20111;-66
2023/01/09 06:59:17;;;;;;;18.73;14.60;;;;;;;;;;5072633;28;20052;-65
2023/01/09 07:01:46;;;;;;;29.05;17.75;;;;;;;;;;5072586;28;20115;-65
2023/01/09 07:04:12;;;;;;;25.20;16.75;;;;;;;;;;5055081;28;20016;-66
2023/01/09 07:06:41;;;;;;;33.15;17.50;;;;;;;;;;5040334;28;20059;-66
2023/01/09 07:09:12;;;;;;;31.10;17.63;;;;;;;;;;5073552;28;20484;-65
2023/01/09 07:11:37;;;;;;;37.15;20.05;;;;;;;;;;5055917;28;20037;-66
2023/01/09 07:14:04;;;;;;;39.45;20.30;;;;;;;;;;5073770;28;20552;-65
2023/01/09 07:16:32;;;;;;;36.55;19.75;;;;;;;;;;5073683;28;20051;-65
2023/01/09 07:19:00;;;;;;;;;;;;;;;;;;5056146;28;20025;-66
2023/01/09 07:21:31;;;;;;;28.05;17.00;;;;;;;;;;5056186;28;19966;-65
2023/01/09 07:23:57;;;;;;;28.67;16.55;;;;;;;;;;5055430;28;20499;-66
2023/01/09 07:26:25;;;;;;;33.10;18.02;;;;;;;;;;5055371;28;20024;-65
2023/01/09 07:28:51;;;;;;;30.05;17.88;;;;;;;;;;5073379;28;20048;-65
2023/01/09 07:31:20;;;;;;;29.27;16.83;;;;;;;;;;5075288;28;20111;-66
2023/01/09 07:33:48;;;;;;;42.28;20.52;;;;;;;;;;5077950;28;20068;-66
2023/01/09 07:36:15;;;;;;;19.42;13.18;;;;;;;;;;5077577;28;20132;-65
2023/01/09 07:38:40;;;;;;;17.30;12.73;;;;;;;;;;5077879;28;20068;-65
2023/01/09 07:41:07;;;;;;;19.63;13.40;;;;;;;;;;5059478;28;20380;-65
2023/01/09 07:43:36;;;;;;;23.75;15.60;;;;;;;;;;5059200;28;20032;-65
2023/01/09 07:46:05;;;;;;;20.92;13.85;;;;;;;;;;5077105;28;20028;-66
2023/01/09 07:48:30;;;;;;;18.75;13.13;;;;;;;;;;5077405;28;20116;-65
2023/01/09 07:51:01;;;;;;;21.17;15.10;;;;;;;;;;5077317;28;20036;-65
2023/01/09 07:53:27;;;;;;;29.20;21.73;;;;;;;;;;5077291;28;20044;-65
2023/01/09 07:55:56;;;;;;;22.23;16.95;;;;;;;;;;5077193;28;20384;-65
2023/01/09 07:58:23;;;;;;;35.30;24.65;;;;;;;;;;5076912;28;20033;-66
2023/01/09 08:00:51;;;;;;;27.92;21.00;;;;;;;;;;5058864;28;20024;-65
2023/01/09 08:03:17;;;;;;;31.50;22.15;;;;;;;;;;5077370;28;20027;-66
2023/01/09 08:05:43;;;;;;;33.42;23.63;;;;;;;;;;5077321;28;20050;-65
2023/01/09 08:08:10;;;;;;;56.97;31.08;;;;;;;;;;5076900;28;20499;-65
2023/01/09 08:10:42;;;;;;;46.75;24.70;;;;;;;;;;5076637;28;20037;-65
2023/01/09 08:13:14;;;;;;;32.42;18.08;;;;;;;;;;5076654;28;20056;-65
2023/01/09 08:15:43;;;;;;;10.27;8.52;;;;;;;;;;5058727;28;20098;-65
2023/01/09 08:18:12;;;;;;;9.57;8.55;;;;;;;;;;5076823;28;20125;-66
2023/01/09 08:20:44;;;;;;;12.93;10.30;;;;;;;;;;5076461;28;20032;-65
2023/01/09 08:23:09;;;;;;;;;;;;;;;;;;5058940;28;20029;-65
2023/01/09 08:25:41;;;;;;;9.48;7.50;;;;;;;;;;5076918;28;19905;-65
2023/01/09 08:28:08;;;;;;;8.00;7.13;;;;;;;;;;5076916;28;20047;-65
2023/01/09 08:30:36;;;;;;;13.45;10.32;;;;;;;;;;5058572;28;20048;-65
2023/01/09 08:33:06;;;;;;;16.27;14.52;;;;;;;;;;5076455;28;20052;-65
2023/01/09 08:35:37;;;;;;;12.23;9.70;;;;;;;;;;5076400;28;20051;-65
2023/01/09 08:38:11;;;;;;;12.57;10.35;;;;;;;;;;5076744;28;20043;-65
2023/01/09 08:40:41;;;;;;;14.05;8.75;;;;;;;;;;5076060;28;20111;-65
2023/01/09 08:48:41;;;;;;;14.18;11.18;;;;;;;;;;5076007;28;20037;-65
2023/01/09 08:51:10;;;;;;;27.02;16.88;;;;;;;;;;5076267;28;20044;-65
2023/01/09 08:53:42;;;;;;;19.17;12.88;;;;;;;;;;5075910;28;20036;-64
2023/01/09 08:56:12;;;;;;;43.80;26.67;;;;;;;;;;5076328;28;20068;-65
2023/01/09 08:58:38;;;;;;;55.17;33.20;;;;;;;;;;5076109;28;20036;-65
2023/01/09 09:01:06;;;;;;;36.92;23.48;;;;;;;;;;5057811;28;20060;-65
2023/01/09 09:03:35;;;;;;;27.63;15.85;;;;;;;;;;5076287;28;20464;-65
2023/01/09 09:06:05;;;;;;;20.17;12.10;;;;;;;;;;5075985;28;20037;-65
2023/01/09 09:08:35;;;;;;;21.95;13.70;;;;;;;;;;5076241;28;20472;-65
2023/01/09 09:11:04;;;;;;;25.50;17.08;;;;;;;;;;5057590;28;20400;-65
2023/01/09 09:13:30;;;;;;;21.33;13.23;;;;;;;;;;5075535;28;20128;-65
2023/01/09 09:15:58;;;;;;;25.50;14.82;;;;;;;;;;5075697;28;20491;-66
2023/01/09 09:18:24;;;;;;;31.15;18.77;;;;;;;;;;5075983;28;20045;-65
2023/01/09 09:20:54;;;;;;;27.20;16.58;;;;;;;;;;5075700;28;20075;-65
2023/01/09 09:23:27;;;;;;;42.70;21.58;;;;;;;;;;5058069;28;20051;-66
2023/01/09 09:25:54;;;;;;;;;;;;;;;;;;5076331;28;20429;-65
2023/01/09 09:28:23;;;;;;;45.42;20.85;;;;;;;;;;5075168;28;19914;-65
2023/01/09 09:30:51;;;;;;;34.92;16.85;;;;;;;;;;5075365;28;20094;-66
2023/01/09 09:33:20;;;;;;;23.48;13.15;;;;;;;;;;5057696;28;20447;-65
2023/01/09 09:35:49;;;;;;;23.83;13.00;;;;;;;;;;5075531;28;20098;-65
2023/01/09 09:38:18;;;;;;;12.23;8.88;;;;;;;;;;5075325;28;20078;-65
2023/01/09 09:41:03;;;;;;;9.80;7.68;;;;;;;;;;5075540;28;20116;-65
2023/01/09 09:46:29;;;;;;;15.77;11.17;;;;;;;;;;5075478;28;20392;-66
2023/01/09 09:49:01;;;;;;;16.02;10.40;;;;;;;;;;5075113;28;20036;-65
2023/01/09 09:51:48;;;;;;;13.63;9.73;;;;;;;;;;5075031;28;20037;-66
2023/01/09 09:54:17;;;;;;;5.88;5.28;;;;;;;;;;5074095;28;20123;-65
2023/01/09 09:56:50;;;;;;;4.60;4.20;;;;;;;;;;5074871;28;20041;-66
2023/01/09 09:59:20;;;;;;;6.70;5.00;;;;;;;;;;5075133;28;20123;-66
2023/01/09 10:01:55;;;;;;;5.72;5.10;;;;;;;;;;5074796;28;20039;-65
2023/01/09 10:04:22;;;;;;;6.18;4.60;;;;;;;;;;5057023;28;20497;-65
2023/01/09 10:06:50;;;;;;;4.97;4.47;;;;;;;;;;5074453;28;20039;-65
2023/01/09 10:09:32;;;;;;;8.13;5.43;;;;;;;;;;5074710;28;20036;-65
2023/01/09 10:20:07;;;;;;;7.32;5.55;;;;;;;;;;5084728;22;20053;-72
2023/01/09 10:22:43;;;;;;;10.35;6.50;;;;;;;;;;5056330;28;20037;-72
2023/01/09 10:25:14;;;;;;;6.82;5.18;;;;;;;;;;5056111;28;20045;-72
2023/01/09 10:27:40;;;;;;;6.97;5.70;;;;;;;;;;5074183;28;20063;-72
2023/01/09 10:30:18;;;;;;;10.73;6.63;;;;;;;;;;5074306;28;20461;-72
2023/01/09 10:33:00;;;;;;;14.95;9.52;;;;;;;;;;5074186;28;20048;-72
2023/01/09 10:35:25;;;;;;;14.35;9.55;;;;;;;;;;5055955;28;20045;-72
2023/01/09 10:37:52;;;;;;;19.65;12.52;;;;;;;;;;5056317;28;20119;-72
2023/01/09 10:40:36;;;;;;;15.82;10.70;;;;;;;;;;5073857;28;20082;-72
2023/01/09 10:43:05;;;;;;;7.13;5.90;;;;;;;;;;5074346;28;20388;-72
2023/01/09 10:45:30;;;;;;;9.45;5.10;;;;;;;;;;5073785;28;20048;-72
2023/01/09 10:48:00;;;;;;;6.30;4.65;;;;;;;;;;5073772;28;20101;-72
2023/01/09 10:50:36;;;;;;;6.15;4.30;;;;;;;;;;5073814;28;20093;-72
2023/01/09 10:53:06;;;;;;;5.53;4.50;;;;;;;;;;5073951;28;20051;-72
2023/01/09 10:55:40;;;;;;;4.35;4.00;;;;;;;;;;5073868;28;20048;-72
2023/01/09 10:58:17;;;;;;;4.50;4.10;;;;;;;;;;5074195;28;20036;-72
2023/01/09 11:00:43;;;;;;;5.35;4.85;;;;;;;;;;5073905;28;20036;-72
2023/01/09 11:03:18;;;;;;;5.13;4.45;;;;;;;;;;5039109;28;20377;-72
2023/01/09 11:05:49;;;;;;;5.95;5.38;;;;;;;;;;5072578;28;20033;-72
2023/01/09 11:08:27;;;;;;;5.88;5.28;;;;;;;;;;5055675;28;20090;-72
2023/01/09 11:10:56;;;;;;;5.38;4.93;;;;;;;;;;5073796;28;20059;-72
2023/01/09 11:13:23;;;;;;;5.00;4.50;;;;;;;;;;5073486;28;20036;-72
2023/01/09 11:16:13;;;;;;;5.03;4.53;;;;;;;;;;5055415;28;20043;-72
2023/01/09 11:18:40;;;;;;;4.82;4.28;;;;;;;;;;5055756;28;20119;-72
2023/01/09 11:21:12;;;;;;;5.18;4.03;;;;;;;;;;5073419;28;20037;-72
2023/01/09 11:23:37;;;;;;;4.63;4.13;;;;;;;;;;5073683;28;20041;-72
2023/01/09 11:26:03;;;;;;;6.00;4.80;;;;;;;;;;5073391;28;20032;-72
2023/01/09 11:28:28;;;;;;;6.63;4.72;;;;;;;;;;5073359;28;20060;-72
2023/01/09 11:30:58;;;;;;;8.20;6.50;;;;;;;;;;5073280;28;20442;-72
2023/01/09 11:33:24;;;;;;;16.97;10.80;;;;;;;;;;5073296;28;20128;-72
2023/01/09 11:35:50;;;;;;;15.38;9.00;;;;;;;;;;5055613;28;20369;-72
2023/01/09 11:38:15;;;;;;;13.90;9.80;;;;;;;;;;5073515;28;20033;-72
2023/01/09 11:40:48;;;;;;;11.02;7.72;;;;;;;;;;5073220;28;20021;-72
2023/01/09 11:43:17;;;;;;;12.77;8.13;;;;;;;;;;5073449;28;20037;-72
2023/01/09 11:45:50;;;;;;;11.48;7.75;;;;;;;;;;5073432;28;20045;-72
2023/01/09 11:48:17;;;;;;;5.75;5.25;;;;;;;;;;5055172;28;20090;-72
2023/01/09 11:50:51;;;;;;;5.78;4.57;;;;;;;;;;5055543;28;20400;-72
2023/01/09 11:53:18;;;;;;;4.72;4.25;;;;;;;;;;5073582;28;20041;-72
2023/01/09 11:55:44;;;;;;;5.90;4.88;;;;;;;;;;5072984;28;20036;-72
2023/01/09 11:58:13;;;;;;;5.05;4.65;;;;;;;;;;5055152;28;20081;-72
2023/01/09 12:01:01;;;;;;;5.22;4.72;;;;;;;;;;5073594;28;20369;-72
2023/01/09 12:03:27;;;;;;;5.43;4.93;;;;;;;;;;5064922;28;20045;-72
2023/01/09 12:06:11;;;;;;;5.32;4.80;;;;;;;;;;5072935;28;20041;-72
2023/01/09 12:08:52;;;;;;;5.80;5.18;;;;;;;;;;5055029;28;20033;-72
2023/01/09 12:11:27;;;;;;;7.25;6.55;;;;;;;;;;5073180;28;20048;-72
2023/01/09 12:13:53;;;;;;;7.68;6.88;;;;;;;;;;5073143;28;20078;-72
2023/01/09 12:16:21;;;;;;;8.35;6.93;;;;;;;;;;5073086;28;20111;-72
2023/01/09 12:18:46;;;;;;;9.98;6.28;;;;;;;;;;5076627;28;20122;-72
2023/01/09 12:21:26;;;;;;;8.45;6.10;;;;;;;;;;5076777;28;20052;-72
2023/01/09 12:24:06;;;;;;;9.25;8.27;;;;;;;;;;5076731;28;20029;-72
2023/01/09 12:26:36;;;;;;;12.10;9.98;;;;;;;;;;5058826;28;20047;-72
2023/01/09 12:29:20;;;;;;;12.52;10.20;;;;;;;;;;5076617;28;20045;-72
2023/01/09 12:32:03;;;;;;;9.70;8.80;;;;;;;;;;5076847;28;20043;-72
2023/01/09 12:34:47;;;;;;;13.57;10.30;;;;;;;;;;5076555;28;20045;-72
2023/01/09 12:37:29;;;;;;;15.55;10.75;;;;;;;;;;5076419;28;20040;-72
2023/01/09 12:39:54;;;;;;;17.85;13.88;;;;;;;;;;5076417;28;20062;-72
2023/01/09 12:42:43;;;;;;;16.85;12.82;;;;;;;;;;5076397;28;20174;-72
2023/01/09 12:45:27;;;;;;;12.18;10.20;;;;;;;;;;5076330;28;20086;-72
2023/01/09 12:47:55;;;;;;;12.70;10.02;;;;;;;;;;5076564;28;20037;-72
2023/01/09 12:50:34;;;;;;;13.85;10.00;;;;;;;;;;5075976;28;20036;-72
2023/01/09 12:53:02;;;;;;;11.95;9.77;;;;;;;;;;5057852;28;20404;-72
2023/01/09 13:02:46;;;;;;;10.75;9.02;;;;;;;;;;5075699;28;20063;-72
2023/01/09 13:05:29;;;;;;;7.35;5.15;;;;;;;;;;5075816;28;20395;-73
2023/01/09 13:11:33;;;;;;;10.95;7.22;;;;;;;;;;5032751;28;20096;-72
2023/01/09 13:14:04;;;;;;;11.07;8.32;;;;;;;;;;5035882;28;20030;-72
2023/01/09 13:16:32;;;;;;;12.27;8.18;;;;;;;;;;5035504;28;20461;-72
2023/01/09 13:19:11;;;;;;;11.68;8.77;;;;;;;;;;5035314;28;20108;-72
2023/01/09 13:21:37;;;;;;;14.82;10.95;;;;;;;;;;5035399;28;20413;-72
2023/01/09 13:24:11;;;;;;;28.50;15.35;;;;;;;;;;5035296;28;20120;-72
2023/01/09 13:26:41;;;;;;;32.47;20.23;;;;;;;;;;5035257;28;20041;-72
2023/01/09 13:29:09;;;;;;;36.20;22.87;;;;;;;;;;5016546;28;20465;-72
2023/01/09 13:31:35;;;;;;;32.60;22.00;;;;;;;;;;5035283;28;20557;-72
2023/01/09 13:34:02;;;;;;;24.33;16.23;;;;;;;;;;5035085;28;20041;-71
2023/01/09 13:36:28;;;;;;;15.90;11.50;;;;;;;;;;5035243;28;20069;-72
2023/01/09 13:38:55;;;;;;;9.70;7.53;;;;;;;;;;5034943;28;20508;-71
2023/01/09 13:44:18;;;;;;;8.57;7.28;;;;;;;;;;5034935;28;20412;-72
2023/01/09 13:46:52;;;;;;;13.77;9.23;;;;;;;;;;5034977;28;20493;-72
2023/01/09 13:49:36;;;;;;;12.60;8.63;;;;;;;;;;5016993;28;20033;-71
2023/01/09 13:52:03;;;;;;;9.93;7.65;;;;;;;;;;5034762;28;20041;-71
2023/01/09 13:54:47;;;;;;;7.85;6.40;;;;;;;;;;5034313;28;20629;-72
2023/01/09 13:57:25;;;;;;;6.22;4.82;;;;;;;;;;5034963;28;20037;-72
2023/01/09 13:59:50;;;;;;;5.65;4.53;;;;;;;;;;5035241;28;20428;-72
2023/01/09 14:02:34;;;;;;;6.13;4.70;;;;;;;;;;5034586;28;20037;-72
2023/01/09 14:05:02;;;;;;;5.45;4.85;;;;;;;;;;5016949;28;20037;-72
2023/01/09 14:07:31;;;;;;;6.95;6.13;;;;;;;;;;5034160;28;20041;-72
2023/01/09 14:09:59;;;;;;;7.20;5.93;;;;;;;;;;5023070;28;20378;-72
2023/01/09 14:16:05;;;;;;;13.38;9.68;;;;;;;;;;5020258;22;20905;-72
2023/01/09 14:19:03;;;;;;;11.68;7.85;;;;;;;;;;5050253;28;20198;-72
2023/01/09 14:22:16;;;;;;;12.85;10.02;;;;;;;;;;5040423;28;20086;-72
2023/01/09 14:25:30;;;;;;;;;;;;;;;;;;;;;
2023/01/09 14:28:36;;;;;;;;;;;;;;;;;;;;;
2023/01/09 14:35:42;;;;;;;8.75;6.63;;;;;;;;;;5057719;22;20056;-64
2023/01/09 14:44:28;;;;;;;7.03;5.75;;;;;;;;;;5054290;28;20064;-64
2023/01/09 14:47:16;;;;;;;10.80;7.25;;;;;;;;;;5036274;28;20037;-64
2023/01/09 14:49:52;;;;;;;13.07;8.45;;;;;;;;;;5054086;28;20036;-64
2023/01/09 14:52:47;;;;;;;10.82;7.25;;;;;;;;;;5053531;28;20398;-63
2023/01/09 14:56:17;;;;;;;;;;;;;;;;;;;;;
2023/01/09 14:58:51;;;;;;;7.75;6.15;;;;;;;;;;5052281;28;20033;-65
2023/01/09 15:04:57;;;;;;;7.80;5.72;;;;;;;;;;5049277;28;20178;-64
2023/01/09 15:07:39;;;;;;;6.88;5.90;;;;;;;;;;5033925;28;20072;-65
2023/01/09 15:13:49;;;;;;;10.25;7.53;;;;;;;;;;5031884;28;20037;-72
2023/01/09 15:16:33;;;;;;;8.40;6.20;;;;;;;;;;5018440;28;20386;-72
2023/01/09 15:19:29;;;;;;;8.85;6.93;;;;;;;;;;5034602;28;20033;-72
2023/01/09 15:26:59;;;;;;;10.25;6.60;;;;;;;;;;4991906;28;20049;-72
2023/01/09 15:37:29;;;;;;;11.23;7.20;;;;;;;;;;4967588;28;20046;-73
2023/01/09 15:40:44;;;;;;;15.35;8.93;;;;;;;;;;4981287;28;20052;-72
2023/01/09 15:43:47;;;;;;;13.38;7.68;;;;;;;;;;5050186;28;20115;-71
2023/01/09 15:46:52;;;;;;;;;;;;;;;;;;;;;
2023/01/09 15:49:59;;;;;;;15.30;8.60;;;;;;;;;;5048424;28;20045;-71
2023/01/09 15:52:56;;;;;;;14.18;8.07;;;;;;;;;;5037169;28;20563;-71
2023/01/09 15:55:52;;;;;;;17.50;9.60;;;;;;;;;;5022029;28;20662;-71
2023/01/09 15:58:45;;;;;;;26.42;14.23;;;;;;;;;;5054457;28;20083;-71
2023/01/09 16:03:08;;;;;;;21.90;12.23;;;;;;;;;;5022296;28;20032;-72
2023/01/09 16:05:22;;;;;;;17.42;9.77;;;;;;;;;;5049664;28;20378;-72
2023/01/09 16:08:07;;;;;;;12.00;8.60;;;;;;;;;;5051109;28;20551;-72
2023/01/09 16:11:54;;;;;;;14.52;9.05;;;;;;;;;;5054460;28;20044;-72
2023/01/09 16:15:18;;;;;;;;;;;;;;;;;;;;;
2023/01/09 16:19:24;;;;;;;;;;;;;;;;;;;;;
2023/01/09 16:23:00;;;;;;;12.57;10.07;;;;;;;;;;5044574;28;20459;-72
2023/01/09 16:26:22;;;;;;;23.65;14.68;;;;;;;;;;5037700;28;20079;-72
2023/01/09 16:30:01;;;;;;;24.25;15.90;;;;;;;;;;5038161;28;20037;-72
2023/01/09 16:33:39;;;;;;;;;;;;;;;;;;;;;
2023/01/09 16:42:59;;;;;;;23.17;13.43;;;;;;;;;;5044980;28;20484;-72
2023/01/09 16:44:26;;;;;;;22.35;12.55;;;;;;;;;;5053577;28;20045;-72
2023/01/09 16:48:02;;;;;;;;;;;;;;;;;;;;;
2023/01/09 16:54:29;;;;;;;28.50;17.05;;;;;;;;;;5055257;28;20384;-72
2023/01/09 17:05:37;;;;;;;26.10;16.13;;;;;;;;;;5051164;28;20103;-72
2023/01/09 17:08:54;;;;;;;23.83;15.27;;;;;;;;;;5053152;28;20041;-72
2023/01/09 17:12:14;;;;;;;23.70;14.30;;;;;;;;;;5053939;28;20091;-72
2023/01/09 17:58:29;;;;;;;;;;;;;;;;;;;;;
2023/01/09 18:01:53;;;;;;;16.92;12.30;;;;;;;;;;4893324;29;20105;-67
2023/01/09 18:04:31;;;;;;;18.15;12.55;;;;;;;;;;4928151;29;20050;-67
2023/01/09 18:07:21;;;;;;;20.95;12.98;;;;;;;;;;5013074;28;20045;-66
2023/01/09 18:10:12;;;;;;;19.27;13.95;;;;;;;;;;4995768;28;20041;-68
2023/01/09 18:13:13;;;;;;;23.88;17.13;;;;;;;;;;5013572;28;20092;-67
2023/01/09 18:16:05;;;;;;;23.00;16.73;;;;;;;;;;4997318;28;20030;-67